createdAt,value
2019-04-20T00:00:52.661Z,1.82
2019-04-20T00:01:47.426Z,1.62
2019-04-20T00:02:51.155Z,1.66
2019-04-20T00:03:49.055Z,1.71
2019-04-20T00:04:47.274Z,1.73
2019-04-20T00:05:46.370Z,1.64
2019-04-20T00:06:50.963Z,1.57
2019-04-20T00:07:48.086Z,1.48
2019-04-20T00:08:47.551Z,1.48
2019-04-20T00:09:55.435Z,1.60
2019-04-20T00:10:55.070Z,1.62
2019-04-20T00:11:58.670Z,1.49
2019-04-20T00:13:01.004Z,1.55
2019-04-20T00:13:55.792Z,1.46
2019-04-20T00:14:48.055Z,1.35
2019-04-20T00:15:47.227Z,1.36
2019-04-20T00:16:46.254Z,1.30
2019-04-20T00:17:52.421Z,1.30
2019-04-20T00:18:51.926Z,1.28
2019-04-20T00:19:52.442Z,1.08
2019-04-20T00:20:51.355Z,1.09
2019-04-20T00:21:56.166Z,1.13
2019-04-20T00:22:51.715Z,1.06
2019-04-20T00:23:48.641Z,1.09
2019-04-20T00:24:50.553Z,1.03
2019-04-20T00:25:54.792Z,1.03
2019-04-20T00:28:10.904Z,1.05
2019-04-20T00:29:07.100Z,0.94
2019-04-20T00:30:04.337Z,0.84
2019-04-20T00:31:07.212Z,0.99
2019-04-20T00:32:02.529Z,0.94
2019-04-20T00:32:58.546Z,0.98
2019-04-20T00:33:56.132Z,0.87
2019-04-20T00:34:48.614Z,0.88
2019-04-20T00:35:46.384Z,0.80
2019-04-20T00:36:47.337Z,0.78
2019-04-20T00:37:46.701Z,0.81
2019-04-20T00:38:51.561Z,0.82
2019-04-20T00:39:47.074Z,0.74
2019-04-20T00:40:50.569Z,0.69
2019-04-20T00:41:53.707Z,0.70
2019-04-20T00:42:51.981Z,0.69
2019-04-20T00:43:47.270Z,0.69
2019-04-20T00:44:54.972Z,0.64
2019-04-20T00:45:53.696Z,0.64
2019-04-20T00:47:00.768Z,0.66
2019-04-20T00:47:54.239Z,0.70
2019-04-20T00:48:55.994Z,0.64
2019-04-20T00:49:57.808Z,0.66
2019-04-20T00:51:00.916Z,0.67
2019-04-20T00:52:13.115Z,0.72
2019-04-20T00:53:01.736Z,0.64
2019-04-20T00:53:51.217Z,0.63
2019-04-20T00:54:47.321Z,0.59
2019-04-20T00:55:46.380Z,0.55
2019-04-20T00:56:45.839Z,0.59
2019-04-20T00:57:53.041Z,0.62
2019-04-20T00:58:58.133Z,0.55
2019-04-20T01:00:09.007Z,0.55
2019-04-20T01:01:11.537Z,0.53
2019-04-20T01:02:04.017Z,0.41
2019-04-20T01:03:02.607Z,0.45
2019-04-20T01:04:15.360Z,0.43
2019-04-20T01:05:06.847Z,0.50
2019-04-20T01:06:08.651Z,0.44
2019-04-20T01:06:57.628Z,0.44
2019-04-20T01:07:52.105Z,0.50
2019-04-20T01:08:46.708Z,0.45
2019-04-20T01:09:45.680Z,0.55
2019-04-20T01:10:50.201Z,0.48
2019-04-20T01:11:48.593Z,0.41
2019-04-20T01:12:45.856Z,0.32
2019-04-20T01:13:50.857Z,0.27
2019-04-20T01:14:53.537Z,0.20
2019-04-20T01:15:55.384Z,0.22
2019-04-20T01:16:54.937Z,0.18
2019-04-20T01:17:46.594Z,0.20
2019-04-20T01:18:47.200Z,0.09
2019-04-20T01:19:48.812Z,0.07
2019-04-20T01:20:47.353Z,0.04
2019-04-20T01:21:54.514Z,-0.07
2019-04-20T01:22:56.762Z,-0.01
2019-04-20T01:23:53.275Z,-0.01
2019-04-20T01:24:48.616Z,-0.03
2019-04-20T01:25:48.285Z,-0.04
2019-04-20T01:26:52.295Z,-0.16
2019-04-20T01:28:05.472Z,-0.11
2019-04-20T01:28:58.472Z,-0.20
2019-04-20T01:29:51.534Z,-0.10
2019-04-20T01:30:59.990Z,-0.21
2019-04-20T01:33:00.197Z,-0.21
2019-04-20T01:33:57.721Z,-0.22
2019-04-20T01:34:55.117Z,-0.28
2019-04-20T01:36:09.022Z,-0.32
2019-04-20T01:37:04.523Z,-0.42
2019-04-20T01:38:09.891Z,-0.31
2019-04-20T01:38:58.914Z,-0.31
2019-04-20T01:39:52.151Z,-0.39
2019-04-20T01:40:46.498Z,-0.42
2019-04-20T01:41:45.501Z,-0.39
2019-04-20T01:42:46.380Z,-0.43
2019-04-20T01:43:46.166Z,-0.57
2019-04-20T01:44:49.158Z,-0.52
2019-04-20T01:45:47.609Z,-0.53
2019-04-20T01:46:49.873Z,-0.58
2019-04-20T01:47:52.372Z,-0.53
2019-04-20T01:48:46.376Z,-0.64
2019-04-20T01:49:47.775Z,-0.61
2019-04-20T01:50:54.821Z,-0.60
2019-04-20T01:51:59.218Z,-0.64
2019-04-20T01:52:57.771Z,-0.68
2019-04-20T01:54:00.831Z,-0.67
2019-04-20T01:55:04.829Z,-0.64
2019-04-20T01:56:01.410Z,-0.52
2019-04-20T01:56:59.640Z,-0.60
2019-04-20T01:58:06.351Z,-0.63
2019-04-20T01:59:06.049Z,-0.60
2019-04-20T02:00:49.157Z,-0.63
2019-04-20T02:01:45.952Z,-0.64
2019-04-20T02:02:50.399Z,-0.75
2019-04-20T02:03:48.958Z,-0.82
2019-04-20T02:04:50.271Z,-0.81
2019-04-20T02:05:53.057Z,-0.70
2019-04-20T02:06:50.338Z,-0.78
2019-04-20T02:08:59.360Z,-0.85
2019-04-20T02:09:59.907Z,-0.85
2019-04-20T02:10:59.204Z,-0.82
2019-04-20T02:12:05.009Z,-0.85
2019-04-20T02:12:59.589Z,-0.82
2019-04-20T02:14:00.404Z,-0.84
2019-04-20T02:15:00.499Z,-0.84
2019-04-20T02:15:59.034Z,-0.81
2019-04-20T02:17:04.508Z,-0.94
2019-04-20T02:18:10.254Z,-0.90
2019-04-20T02:19:10.796Z,-0.95
2019-04-20T02:20:17.102Z,-0.98
2019-04-20T02:21:15.156Z,-0.95
2019-04-20T02:22:12.654Z,-0.94
2019-04-20T02:23:13.885Z,-0.92
2019-04-20T02:24:00.622Z,-0.97
2019-04-20T02:24:55.690Z,-0.85
2019-04-20T02:25:54.670Z,-0.94
2019-04-20T02:26:55.700Z,-0.95
2019-04-20T02:28:07.604Z,-1.03
2019-04-20T02:29:20.244Z,-1.05
2019-04-20T02:30:23.889Z,-0.98
2019-04-20T02:31:34.310Z,-1.00
2019-04-20T02:32:23.599Z,-0.98
2019-04-20T02:33:34.790Z,-1.03
2019-04-20T02:34:33.564Z,-1.03
2019-04-20T02:35:30.222Z,-1.03
2019-04-20T02:37:44.997Z,-1.01
2019-04-20T02:38:36.848Z,-1.03
2019-04-20T02:41:23.643Z,-1.05
2019-04-20T02:43:15.199Z,-1.15
2019-04-20T02:44:24.142Z,-1.13
2019-04-20T02:45:27.723Z,-1.04
2019-04-20T02:46:15.533Z,-1.08
2019-04-20T02:47:26.875Z,-1.03
2019-04-20T02:48:13.484Z,-1.10
2019-04-20T02:49:35.412Z,-1.11
2019-04-20T02:51:16.608Z,-1.15
2019-04-20T02:52:21.110Z,-1.08
2019-04-20T02:53:22.058Z,-1.07
2019-04-20T02:54:26.054Z,-1.11
2019-04-20T02:55:14.488Z,-1.07
2019-04-20T02:56:29.615Z,-1.13
2019-04-20T02:58:20.502Z,-1.19
2019-04-20T03:00:13.328Z,-1.22
2019-04-20T03:01:11.924Z,-1.28
2019-04-20T03:02:09.061Z,-1.25
2019-04-20T03:02:57.264Z,-1.19
2019-04-20T03:03:51.163Z,-1.16
2019-04-20T03:04:56.153Z,-1.19
2019-04-20T03:06:01.323Z,-1.10
2019-04-20T03:07:04.199Z,-1.11
2019-04-20T03:08:04.633Z,-1.08
2019-04-20T03:09:11.331Z,-1.03
2019-04-20T03:10:05.497Z,-1.04
2019-04-20T03:11:08.989Z,-1.07
2019-04-20T03:13:14.481Z,-1.11
2019-04-20T03:14:13.730Z,-1.16
2019-04-20T03:15:09.689Z,-1.18
2019-04-20T03:16:16.481Z,-1.18
2019-04-20T03:18:14.067Z,-1.25
2019-04-20T03:19:13.013Z,-1.22
2019-04-20T03:20:18.831Z,-1.25
2019-04-20T03:21:21.434Z,-1.26
2019-04-20T03:22:24.651Z,-1.25
2019-04-20T03:23:35.355Z,-1.22
2019-04-20T03:24:23.827Z,-1.19
2019-04-20T03:25:17.933Z,-1.25
2019-04-20T03:26:17.622Z,-1.16
2019-04-20T03:27:14.528Z,-1.26
2019-04-20T03:28:15.506Z,-1.25
2019-04-20T03:29:10.135Z,-1.25
2019-04-20T03:30:40.659Z,-1.16
2019-04-20T03:32:40.201Z,-1.11
2019-04-20T03:33:31.425Z,-1.15
2019-04-20T03:35:20.857Z,-1.21
2019-04-20T03:36:26.795Z,-1.19
2019-04-20T03:37:20.401Z,-1.22
2019-04-20T03:38:16.957Z,-1.08
2019-04-20T03:39:13.846Z,-1.10
2019-04-20T03:40:11.260Z,-0.98
2019-04-20T03:41:08.586Z,-0.95
2019-04-20T03:41:56.750Z,-1.00
2019-04-20T03:42:54.896Z,-1.01
2019-04-20T03:44:01.037Z,-1.01
2019-04-20T03:45:07.603Z,-1.00
2019-04-20T03:46:02.594Z,-0.92
2019-04-20T03:46:59.702Z,-0.94
2019-04-20T03:48:06.157Z,-1.00
2019-04-20T03:49:17.179Z,-0.97
2019-04-20T03:50:18.024Z,-0.90
2019-04-20T03:51:14.817Z,-0.95
2019-04-20T03:52:13.250Z,-0.86
2019-04-20T03:53:19.823Z,-0.81
2019-04-20T03:54:12.184Z,-0.81
2019-04-20T03:55:18.145Z,-0.75
2019-04-20T03:56:21.596Z,-0.78
2019-04-20T03:57:23.591Z,-0.67
2019-04-20T03:58:14.341Z,-0.58
2019-04-20T03:59:08.681Z,-0.63
2019-04-20T04:00:09.949Z,-0.63
2019-04-20T04:01:19.904Z,-0.53
2019-04-20T04:02:35.139Z,-0.61
2019-04-20T04:03:21.407Z,-0.52
2019-04-20T04:04:16.864Z,-0.42
2019-04-20T04:05:13.963Z,-0.35
2019-04-20T04:06:05.463Z,-0.42
2019-04-20T04:06:59.552Z,-0.38
2019-04-20T04:08:09.166Z,-0.29
2019-04-20T04:09:08.941Z,-0.24
2019-04-20T04:10:10.969Z,-0.25
2019-04-20T04:11:12.336Z,-0.16
2019-04-20T04:12:05.723Z,0.00
2019-04-20T04:12:54.805Z,0.05
2019-04-20T04:13:54.626Z,0.12
2019-04-20T04:14:53.742Z,0.25
2019-04-20T04:15:59.255Z,0.43
2019-04-20T04:18:11.087Z,0.78
2019-04-20T04:19:15.375Z,0.84
2019-04-20T04:20:10.979Z,0.99
2019-04-20T04:21:09.853Z,1.05
2019-04-20T04:22:19.252Z,1.21
2019-04-20T04:23:24.600Z,1.30
2019-04-20T04:24:18.706Z,1.34
2019-04-20T04:25:17.068Z,1.49
2019-04-20T04:26:22.014Z,1.52
2019-04-20T04:27:18.565Z,1.57
2019-04-20T04:28:21.292Z,1.69
2019-04-20T04:29:28.824Z,1.74
2019-04-20T04:30:18.086Z,1.81
2019-04-20T04:31:21.053Z,1.93
2019-04-20T04:32:24.549Z,1.97
2019-04-20T04:33:50.478Z,1.92
2019-04-20T04:34:23.826Z,2.06
2019-04-20T04:35:19.004Z,2.14
2019-04-20T04:36:22.245Z,2.21
2019-04-20T04:37:24.193Z,2.25
2019-04-20T04:38:30.090Z,2.29
2019-04-20T04:39:25.185Z,2.32
2019-04-20T04:40:31.680Z,2.33
2019-04-20T04:42:27.964Z,2.37
2019-04-20T04:43:27.037Z,2.48
2019-04-20T04:44:19.193Z,2.53
2019-04-20T04:45:08.095Z,2.50
2019-04-20T04:46:05.838Z,2.55
2019-04-20T04:47:07.061Z,2.57
2019-04-20T04:48:06.789Z,2.57
2019-04-20T04:50:18.442Z,2.78
2019-04-20T04:51:21.215Z,2.72
2019-04-20T04:52:17.934Z,2.78
2019-04-20T04:53:28.812Z,2.75
2019-04-20T04:54:26.888Z,2.84
2019-04-20T04:55:25.947Z,2.90
2019-04-20T04:56:18.361Z,2.90
2019-04-20T04:57:15.653Z,2.96
2019-04-20T04:58:13.312Z,2.96
2019-04-20T04:59:13.272Z,3.04
2019-04-20T05:00:19.992Z,3.05
2019-04-20T05:01:21.755Z,3.02
2019-04-20T05:02:14.252Z,3.09
2019-04-20T05:03:31.076Z,3.14
2019-04-20T05:04:31.707Z,3.18
2019-04-20T05:05:37.016Z,3.26
2019-04-20T05:06:31.846Z,3.20
2019-04-20T05:07:31.182Z,3.20
2019-04-20T05:08:23.408Z,3.23
2019-04-20T05:09:16.780Z,3.33
2019-04-20T05:10:14.043Z,3.42
2019-04-20T05:11:13.274Z,3.35
2019-04-20T05:12:19.672Z,3.45
2019-04-20T05:13:14.119Z,3.45
2019-04-20T05:14:19.317Z,3.48
2019-04-20T05:15:28.210Z,3.51
2019-04-20T05:16:37.407Z,3.62
2019-04-20T05:17:34.262Z,3.49
2019-04-20T05:18:43.513Z,3.54
2019-04-20T05:19:38.191Z,3.62
2019-04-20T05:20:35.320Z,3.63
2019-04-20T05:22:41.652Z,3.70
2019-04-20T05:23:35.464Z,3.76
2019-04-20T05:24:38.950Z,3.76
2019-04-20T05:25:50.918Z,3.72
2019-04-20T05:26:44.560Z,3.70
2019-04-20T05:27:46.668Z,3.70
2019-04-20T05:28:33.439Z,3.81
2019-04-20T05:29:29.310Z,3.80
2019-04-20T05:30:24.560Z,3.74
2019-04-20T05:31:30.937Z,3.91
2019-04-20T05:32:36.237Z,3.84
2019-04-20T05:33:34.344Z,3.98
2019-04-20T05:34:45.299Z,3.96
2019-04-20T05:35:43.412Z,4.02
2019-04-20T05:36:46.221Z,4.03
2019-04-20T05:37:51.314Z,4.06
2019-04-20T05:38:47.013Z,4.17
2019-04-20T05:39:44.758Z,4.18
2019-04-20T05:40:47.652Z,4.23
2019-04-20T05:41:41.931Z,4.24
2019-04-20T05:43:45.695Z,4.38
2019-04-20T05:44:48.609Z,4.35
2019-04-20T05:45:39.934Z,4.43
2019-04-20T05:46:42.525Z,4.42
2019-04-20T05:47:42.893Z,4.41
2019-04-20T05:48:45.844Z,4.42
2019-04-20T05:49:40.324Z,4.42
2019-04-20T05:50:46.245Z,4.49
2019-04-20T05:51:43.296Z,4.56
2019-04-20T05:52:53.894Z,4.49
2019-04-20T05:53:45.419Z,4.63
2019-04-20T05:55:46.485Z,4.78
2019-04-20T05:57:42.736Z,4.82
2019-04-20T05:58:44.821Z,4.85
2019-04-20T05:59:51.576Z,4.83
2019-04-20T06:00:49.861Z,4.89
2019-04-20T06:01:48.932Z,4.93
2019-04-20T06:02:45.151Z,5.04
2019-04-20T06:03:45.121Z,5.12
2019-04-20T06:04:59.978Z,5.12
2019-04-20T06:05:53.487Z,5.21
2019-04-20T06:06:45.259Z,5.21
2019-04-20T06:07:42.392Z,5.25
2019-04-20T06:08:53.808Z,5.27
2019-04-20T06:09:46.333Z,5.29
2019-04-20T06:10:45.619Z,5.37
2019-04-20T06:12:01.424Z,5.34
2019-04-20T06:12:41.280Z,5.39
2019-04-20T06:13:37.870Z,5.43
2019-04-20T06:14:40.544Z,5.47
2019-04-20T06:15:43.216Z,5.47
2019-04-20T06:16:52.200Z,5.52
2019-04-20T06:17:46.155Z,5.52
2019-04-20T06:18:38.078Z,5.48
2019-04-20T06:19:39.739Z,5.43
2019-04-20T06:21:12.098Z,5.54
2019-04-20T06:21:42.650Z,5.51
2019-04-20T06:22:43.771Z,5.58
2019-04-20T06:23:54.188Z,5.61
2019-04-20T06:24:53.162Z,5.54
2019-04-20T06:25:55.917Z,5.50
2019-04-20T06:26:56.555Z,5.54
2019-04-20T06:27:46.738Z,5.58
2019-04-20T06:28:40.020Z,5.54
2019-04-20T06:29:41.408Z,5.62
2019-04-20T06:30:39.300Z,5.58
2019-04-20T06:31:48.644Z,5.55
2019-04-20T06:32:44.216Z,5.51
2019-04-20T06:34:05.547Z,5.62
2019-04-20T06:34:58.496Z,5.61
2019-04-20T06:36:03.688Z,5.66
2019-04-20T06:36:47.138Z,5.67
2019-04-20T06:37:44.154Z,5.76
2019-04-20T06:39:02.723Z,5.76
2019-04-20T06:39:46.520Z,5.73
2019-04-20T06:40:54.171Z,5.84
2019-04-20T06:42:02.384Z,5.87
2019-04-20T06:42:39.847Z,5.82
2019-04-20T06:43:46.226Z,5.84
2019-04-20T06:44:45.786Z,5.87
2019-04-20T06:45:51.136Z,5.88
2019-04-20T06:46:54.248Z,5.94
2019-04-20T06:47:46.110Z,5.97
2019-04-20T06:48:47.039Z,6.06
2019-04-20T06:49:42.216Z,6.11
2019-04-20T06:50:38.732Z,6.13
2019-04-20T06:51:47.385Z,6.18
2019-04-20T06:52:37.453Z,6.21
2019-04-20T06:53:44.998Z,6.21
2019-04-20T06:54:45.131Z,6.40
2019-04-20T06:55:49.764Z,6.38
2019-04-20T06:56:41.768Z,6.45
2019-04-20T06:57:47.138Z,6.57
2019-04-20T06:58:50.934Z,6.50
2019-04-20T06:59:45.832Z,6.61
2019-04-20T07:00:41.970Z,6.61
2019-04-20T07:01:52.990Z,6.64
2019-04-20T07:02:44.204Z,6.64
2019-04-20T07:04:18.740Z,6.74
2019-04-20T07:04:47.501Z,6.63
2019-04-20T07:05:47.805Z,6.60
2019-04-20T07:06:54.869Z,6.63
2019-04-20T07:07:47.635Z,6.71
2019-04-20T07:09:58.324Z,6.75
2019-04-20T07:10:45.160Z,6.61
2019-04-20T07:11:42.570Z,6.61
2019-04-20T07:12:36.916Z,6.60
2019-04-20T07:13:35.689Z,6.71
2019-04-20T07:14:36.667Z,6.79
2019-04-20T07:15:36.423Z,6.74
2019-04-20T07:16:45.116Z,6.88
2019-04-20T07:18:42.554Z,6.85
2019-04-20T07:19:40.309Z,6.97
2019-04-20T07:20:52.594Z,6.85
2019-04-20T07:21:52.568Z,6.89
2019-04-20T07:22:46.551Z,6.96
2019-04-20T07:23:48.252Z,6.89
2019-04-20T07:24:48.704Z,6.92
2019-04-20T07:25:37.567Z,7.03
2019-04-20T07:26:46.360Z,7.06
2019-04-20T07:27:43.238Z,7.13
2019-04-20T07:28:49.971Z,7.10
2019-04-20T07:29:46.085Z,7.15
2019-04-20T07:30:52.161Z,7.16
2019-04-20T07:31:39.361Z,7.33
2019-04-20T07:32:48.597Z,7.50
2019-04-20T07:33:51.198Z,7.47
2019-04-20T07:34:43.428Z,7.55
2019-04-20T07:35:40.428Z,7.66
2019-04-20T07:36:51.559Z,7.73
2019-04-20T07:38:49.970Z,7.80
2019-04-20T07:39:46.225Z,7.86
2019-04-20T07:40:38.334Z,7.87
2019-04-20T07:41:50.496Z,7.92
2019-04-20T07:42:49.493Z,7.84
2019-04-20T07:43:52.975Z,7.87
2019-04-20T07:44:49.888Z,7.86
2019-04-20T07:45:36.581Z,7.83
2019-04-20T07:46:54.519Z,7.83
2019-04-20T07:47:49.241Z,7.84
2019-04-20T07:48:42.203Z,7.91
2019-04-20T07:49:41.996Z,7.86
2019-04-20T07:50:37.590Z,7.73
2019-04-20T07:51:29.640Z,7.80
2019-04-20T07:52:36.938Z,7.86
2019-04-20T07:53:36.201Z,7.87
2019-04-20T07:54:47.593Z,7.91
2019-04-20T07:55:58.175Z,7.84
2019-04-20T07:56:42.454Z,7.88
2019-04-20T07:57:39.165Z,7.83
2019-04-20T07:58:30.706Z,7.87
2019-04-20T07:59:32.529Z,7.88
2019-04-20T08:00:48.472Z,7.87
2019-04-20T08:01:52.714Z,7.83
2019-04-20T08:02:50.240Z,7.87
2019-04-20T08:03:47.084Z,7.94
2019-04-20T08:04:36.785Z,7.95
2019-04-20T08:05:33.647Z,7.92
2019-04-20T08:06:33.099Z,8.01
2019-04-20T08:07:35.178Z,8.01
2019-04-20T08:08:37.648Z,7.95
2019-04-20T08:09:34.205Z,7.95
2019-04-20T08:10:42.915Z,8.02
2019-04-20T08:11:52.553Z,8.06
2019-04-20T08:12:43.858Z,7.96
2019-04-20T08:13:45.781Z,8.04
2019-04-20T08:14:52.161Z,8.20
2019-04-20T08:16:49.086Z,8.14
2019-04-20T08:18:44.010Z,8.20
2019-04-20T08:19:39.709Z,8.24
2019-04-20T08:20:39.366Z,8.20
2019-04-20T08:21:40.900Z,8.32
2019-04-20T08:22:42.157Z,8.39
2019-04-20T08:23:44.476Z,8.38
2019-04-20T08:24:37.162Z,8.39
2019-04-20T08:25:32.731Z,8.46
2019-04-20T08:26:29.973Z,8.37
2019-04-20T08:27:21.823Z,8.38
2019-04-20T08:28:29.217Z,8.44
2019-04-20T08:29:41.755Z,8.52
2019-04-20T08:30:38.855Z,8.38
2019-04-20T08:31:35.782Z,8.41
2019-04-20T08:32:38.854Z,8.38
2019-04-20T08:33:42.667Z,8.50
2019-04-20T08:34:47.504Z,8.59
2019-04-20T08:35:47.509Z,8.53
2019-04-20T08:36:47.727Z,8.49
2019-04-20T08:37:48.936Z,8.42
2019-04-20T08:40:43.646Z,8.55
2019-04-20T08:41:46.402Z,8.46
2019-04-20T08:43:47.116Z,8.57
2019-04-20T08:44:53.722Z,8.57
2019-04-20T08:46:53.335Z,8.59
2019-04-20T08:47:49.919Z,8.72
2019-04-20T08:48:43.395Z,8.78
2019-04-20T08:49:45.519Z,8.78
2019-04-20T08:50:41.448Z,8.77
2019-04-20T08:51:49.979Z,8.72
2019-04-20T08:53:44.987Z,8.77
2019-04-20T08:54:34.631Z,8.80
2019-04-20T08:55:40.138Z,8.83
2019-04-20T08:56:31.805Z,8.85
2019-04-20T08:57:22.545Z,8.81
2019-04-20T08:58:20.478Z,8.77
2019-04-20T08:59:21.053Z,8.75
2019-04-20T09:00:30.916Z,8.77
2019-04-20T09:01:28.251Z,8.77
2019-04-20T09:02:22.095Z,8.77
2019-04-20T09:03:28.479Z,8.86
2019-04-20T09:04:33.748Z,8.72
2019-04-20T09:05:35.002Z,8.74
2019-04-20T09:06:40.747Z,8.77
2019-04-20T09:07:25.150Z,8.80
2019-04-20T09:08:28.060Z,8.83
2019-04-20T09:09:56.467Z,8.86
2019-04-20T09:10:54.355Z,8.78
2019-04-20T09:11:45.188Z,8.89
2019-04-20T09:12:39.293Z,8.83
2019-04-20T09:13:29.965Z,8.88
2019-04-20T09:14:23.140Z,8.95
2019-04-20T09:15:21.122Z,9.03
2019-04-20T09:16:28.921Z,9.01
2019-04-20T09:17:27.303Z,9.23
2019-04-20T09:18:25.994Z,9.29
2019-04-20T09:19:29.953Z,9.22
2019-04-20T09:20:31.887Z,9.24
2019-04-20T09:21:32.285Z,9.24
2019-04-20T09:22:33.172Z,9.24
2019-04-20T09:23:36.331Z,9.11
2019-04-20T09:24:43.516Z,9.14
2019-04-20T09:26:37.526Z,9.08
2019-04-20T09:27:33.983Z,9.09
2019-04-20T09:28:28.485Z,9.24
2019-04-20T09:29:35.796Z,9.22
2019-04-20T09:30:32.023Z,9.34
2019-04-20T09:31:35.965Z,9.37
2019-04-20T09:32:34.304Z,9.44
2019-04-20T09:33:43.655Z,9.36
2019-04-20T09:34:41.723Z,9.24
2019-04-20T09:35:38.711Z,9.23
2019-04-20T09:36:32.588Z,9.08
2019-04-20T09:37:43.321Z,9.04
2019-04-20T09:38:40.811Z,9.06
2019-04-20T09:39:30.400Z,9.14
2019-04-20T09:40:46.137Z,8.96
2019-04-20T09:41:45.249Z,9.08
2019-04-20T09:42:20.999Z,9.08
2019-04-20T09:43:20.167Z,9.14
2019-04-20T09:44:20.125Z,9.11
2019-04-20T09:45:27.764Z,9.09
2019-04-20T09:46:22.247Z,9.19
2019-04-20T09:47:29.454Z,9.18
2019-04-20T09:48:31.814Z,9.22
2019-04-20T09:49:37.758Z,9.26
2019-04-20T09:50:38.785Z,9.24
2019-04-20T09:51:40.321Z,9.26
2019-04-20T09:52:31.244Z,9.26
2019-04-20T09:53:33.862Z,9.29
2019-04-20T09:54:36.096Z,9.40
2019-04-20T09:55:32.877Z,9.40
2019-04-20T09:56:36.601Z,9.37
2019-04-20T09:57:41.964Z,9.37
2019-04-20T09:58:32.054Z,9.37
2019-04-20T09:59:39.949Z,9.34
2019-04-20T10:00:37.341Z,9.27
2019-04-20T10:01:31.125Z,9.34
2019-04-20T10:02:24.908Z,9.36
2019-04-20T10:03:20.774Z,9.37
2019-04-20T10:04:19.766Z,9.37
2019-04-20T10:05:19.856Z,9.47
2019-04-20T10:06:24.968Z,9.51
2019-04-20T10:07:24.256Z,9.50
2019-04-20T10:08:21.869Z,9.40
2019-04-20T10:09:26.779Z,9.42
2019-04-20T10:11:30.014Z,9.34
2019-04-20T10:12:31.280Z,9.34
2019-04-20T10:13:30.159Z,9.44
2019-04-20T10:14:31.031Z,9.36
2019-04-20T10:15:31.314Z,9.33
2019-04-20T10:16:29.934Z,9.30
2019-04-20T10:17:31.785Z,9.36
2019-04-20T10:18:30.073Z,9.40
2019-04-20T10:19:33.893Z,9.50
2019-04-20T10:20:34.468Z,9.54
2019-04-20T10:21:31.878Z,9.51
2019-04-20T10:22:30.866Z,9.40
2019-04-20T10:23:30.326Z,9.37
2019-04-20T10:24:30.662Z,9.45
2019-04-20T10:25:30.847Z,9.45
2019-04-20T10:26:30.299Z,9.34
2019-04-20T10:27:30.649Z,9.40
2019-04-20T10:28:29.825Z,9.52
2019-04-20T10:29:31.214Z,9.62
2019-04-20T10:30:30.585Z,9.70
2019-04-20T10:31:30.744Z,9.70
2019-04-20T10:32:34.217Z,9.84
2019-04-20T10:33:31.364Z,9.99
2019-04-20T10:34:30.581Z,9.85
2019-04-20T10:35:29.821Z,9.87
2019-04-20T10:36:29.868Z,9.90
2019-04-20T10:37:29.700Z,9.87
2019-04-20T10:38:33.702Z,9.90
2019-04-20T10:39:30.810Z,9.85
2019-04-20T10:40:44.811Z,9.69
2019-04-20T10:41:40.918Z,9.59
2019-04-20T10:43:38.966Z,9.63
2019-04-20T10:44:39.013Z,9.73
2019-04-20T10:45:39.205Z,9.72
2019-04-20T10:46:38.991Z,9.90
2019-04-20T10:47:39.047Z,9.85
2019-04-20T10:48:45.908Z,9.88
2019-04-20T10:49:40.856Z,9.91
2019-04-20T10:50:39.014Z,9.75
2019-04-20T10:51:39.947Z,9.83
2019-04-20T10:52:38.821Z,9.84
2019-04-20T10:53:40.297Z,9.84
2019-04-20T10:54:38.810Z,9.91
2019-04-20T10:55:39.737Z,9.88
2019-04-20T10:56:39.400Z,9.85
2019-04-20T10:57:39.682Z,9.87
2019-04-20T10:58:39.953Z,9.93
2019-04-20T10:59:39.411Z,10.08
2019-04-20T11:00:39.698Z,10.06
2019-04-20T11:01:39.991Z,10.02
2019-04-20T11:02:39.623Z,9.93
2019-04-20T11:03:38.705Z,9.87
2019-04-20T11:04:38.841Z,9.90
2019-04-20T11:05:38.673Z,9.91
2019-04-20T11:06:38.731Z,9.91
2019-04-20T11:07:38.806Z,9.94
2019-04-20T11:08:38.659Z,9.85
2019-04-20T11:09:38.801Z,9.90
2019-04-20T11:10:52.135Z,9.85
2019-04-20T11:11:40.720Z,9.88
2019-04-20T11:12:38.598Z,9.90
2019-04-20T11:13:39.360Z,9.85
2019-04-20T11:14:41.950Z,9.94
2019-04-20T11:15:46.388Z,9.90
2019-04-20T11:16:38.558Z,9.87
2019-04-20T11:17:39.481Z,9.88
2019-04-20T11:18:39.734Z,9.98
2019-04-20T11:19:39.250Z,10.09
2019-04-20T11:20:39.427Z,10.18
2019-04-20T11:21:38.740Z,10.21
2019-04-20T11:22:38.494Z,10.21
2019-04-20T11:23:38.492Z,10.30
2019-04-20T11:24:38.691Z,10.21
2019-04-20T11:25:38.477Z,10.20
2019-04-20T11:26:40.547Z,10.10
2019-04-20T11:27:38.514Z,10.02
2019-04-20T11:28:38.432Z,9.90
2019-04-20T11:29:38.434Z,9.88
2019-04-20T11:30:38.430Z,9.91
2019-04-20T11:31:42.233Z,9.94
2019-04-20T11:32:40.230Z,10.06
2019-04-20T11:33:38.458Z,10.12
2019-04-20T11:34:40.252Z,10.16
2019-04-20T11:35:41.619Z,10.14
2019-04-20T11:36:39.340Z,10.14
2019-04-20T11:37:39.361Z,10.03
2019-04-20T11:38:38.701Z,10.06
2019-04-20T11:39:39.112Z,9.99
2019-04-20T11:40:39.159Z,9.96
2019-04-20T11:41:38.973Z,10.02
2019-04-20T11:42:39.384Z,9.96
2019-04-20T11:43:39.758Z,9.90
2019-04-20T11:44:38.327Z,10.02
2019-04-20T11:45:38.546Z,10.12
2019-04-20T11:46:38.766Z,10.09
2019-04-20T11:47:47.340Z,10.18
2019-04-20T11:48:39.432Z,10.24
2019-04-20T11:49:39.434Z,10.23
2019-04-20T11:50:38.195Z,10.35
2019-04-20T11:51:39.451Z,10.42
2019-04-20T11:52:41.363Z,10.43
2019-04-20T11:53:40.370Z,10.36
2019-04-20T11:54:38.144Z,10.26
2019-04-20T11:55:38.345Z,10.21
2019-04-20T11:56:40.817Z,10.17
2019-04-20T11:57:39.573Z,10.17
2019-04-20T11:58:38.828Z,10.20
2019-04-20T11:59:39.090Z,10.16
2019-04-20T12:00:45.845Z,10.20
2019-04-20T12:01:49.243Z,10.28
2019-04-20T12:02:42.516Z,10.23
2019-04-20T12:03:50.657Z,10.35
2019-04-20T12:04:47.211Z,10.39
2019-04-20T12:05:44.492Z,10.52
2019-04-20T12:06:39.214Z,10.48
2019-04-20T12:07:38.156Z,10.41
2019-04-20T12:08:40.512Z,10.30
2019-04-20T12:09:37.983Z,10.27
2019-04-20T12:10:39.195Z,10.38
2019-04-20T12:11:53.336Z,10.38
2019-04-20T12:12:42.494Z,10.42
2019-04-20T12:13:38.932Z,10.35
2019-04-20T12:14:38.826Z,10.31
2019-04-20T12:15:38.903Z,10.26
2019-04-20T12:16:37.903Z,10.28
2019-04-20T12:17:37.917Z,10.30
2019-04-20T12:18:38.014Z,10.43
2019-04-20T12:19:45.954Z,10.34
2019-04-20T12:20:38.959Z,10.60
2019-04-20T12:21:39.073Z,10.57
2019-04-20T12:22:37.842Z,10.58
2019-04-20T12:23:38.240Z,10.62
2019-04-20T12:24:38.200Z,10.61
2019-04-20T12:25:39.420Z,10.67
2019-04-20T12:26:38.661Z,10.86
2019-04-20T12:27:41.947Z,10.67
2019-04-20T12:28:40.083Z,10.79
2019-04-20T12:29:38.657Z,10.83
2019-04-20T12:30:37.752Z,10.79
2019-04-20T12:31:37.762Z,10.78
2019-04-20T12:32:42.900Z,10.82
2019-04-20T12:33:40.060Z,10.83
2019-04-20T12:34:39.075Z,10.80
2019-04-20T12:35:38.427Z,10.73
2019-04-20T12:36:37.689Z,10.62
2019-04-20T12:37:38.959Z,10.62
2019-04-20T12:38:39.040Z,10.72
2019-04-20T12:39:37.661Z,10.83
2019-04-20T12:40:37.999Z,10.90
2019-04-20T12:41:45.276Z,10.86
2019-04-20T12:42:39.124Z,10.83
2019-04-20T12:43:38.109Z,10.93
2019-04-20T12:44:37.745Z,10.85
2019-04-20T12:45:37.845Z,11.00
2019-04-20T12:46:38.237Z,10.97
2019-04-20T12:47:37.579Z,11.01
2019-04-20T12:48:37.787Z,11.00
2019-04-20T12:49:37.865Z,10.82
2019-04-20T12:50:37.555Z,10.82
2019-04-20T12:51:52.620Z,10.79
2019-04-20T12:52:38.734Z,10.73
2019-04-20T12:53:38.355Z,10.72
2019-04-20T12:54:40.792Z,10.62
2019-04-20T12:55:38.815Z,10.60
2019-04-20T12:56:38.323Z,10.60
2019-04-20T12:57:38.612Z,10.60
2019-04-20T12:58:39.008Z,10.76
2019-04-20T12:59:37.435Z,10.79
2019-04-20T13:00:37.498Z,10.70
2019-04-20T13:01:37.491Z,10.58
2019-04-20T13:02:37.605Z,10.65
2019-04-20T13:03:37.521Z,10.70
2019-04-20T13:04:37.404Z,10.76
2019-04-20T13:05:38.116Z,10.72
2019-04-20T13:06:39.046Z,10.83
2019-04-20T13:07:42.128Z,10.80
2019-04-20T13:08:42.234Z,10.82
2019-04-20T13:09:38.845Z,10.80
2019-04-20T13:10:37.321Z,10.93
2019-04-20T13:11:46.170Z,10.87
2019-04-20T13:12:38.439Z,11.01
2019-04-20T13:13:38.437Z,11.00
2019-04-20T13:14:38.208Z,11.12
2019-04-20T13:15:38.313Z,11.16
2019-04-20T13:16:38.540Z,11.09
2019-04-20T13:17:37.993Z,10.97
2019-04-20T13:18:37.257Z,10.95
2019-04-20T13:19:37.532Z,10.91
2019-04-20T13:20:37.244Z,10.78
2019-04-20T13:21:37.202Z,10.93
2019-04-20T13:22:37.193Z,10.87
2019-04-20T13:23:44.978Z,10.80
2019-04-20T13:24:37.169Z,10.80
2019-04-20T13:25:37.174Z,10.83
2019-04-20T13:26:37.335Z,10.91
2019-04-20T13:27:37.144Z,10.90
2019-04-20T13:28:37.171Z,10.82
2019-04-20T13:29:38.281Z,10.83
2019-04-20T13:30:37.647Z,10.90
2019-04-20T13:31:37.956Z,10.86
2019-04-20T13:32:38.130Z,11.01
2019-04-20T13:33:37.069Z,10.98
2019-04-20T13:34:38.168Z,10.98
2019-04-20T13:35:38.292Z,10.98
2019-04-20T13:36:38.078Z,10.86
2019-04-20T13:37:39.703Z,11.03
2019-04-20T13:38:38.187Z,11.09
2019-04-20T13:39:37.010Z,11.11
2019-04-20T13:40:37.697Z,10.95
2019-04-20T13:41:38.065Z,10.94
2019-04-20T13:42:38.153Z,11.00
2019-04-20T13:43:37.625Z,11.05
2019-04-20T13:44:37.039Z,10.95